wfrog 0.8.1-svn - Estació meteorològica 6tec Manacor
2021-04-16 04:03:26
wfrog
9.6°C
Humidity 92 %
Pressure 1013.0 hPa
⌂  
21.6°C
33 %

Wind 4.3 km/h
Gust 4.7 km/h
Rain 0 mm /h
 
Temperature and Dew Point
°C
Humidity
%
Pressure
Wind and Gusts
Wind Direction

Rain
Rain rate
mm /h
UV Index

                      Temp. C         Humidity %     Pressure hPa       Rain mm        Wind km/h       UV     
                   max   min   avg  max  min  avg   max   min   avg   fall   rate    avg    max  dir
2021/04/16 04:02   9.6   9.6   9.6  92%  92%  92%  1013  1013  1013    0.0    0.0    2.9    4.7  ENE    -
2021/04/16 03:57   9.4   9.4   9.4  92%  92%  92%  1013  1013  1013    0.0    0.0    2.9    4.7    E    -
2021/04/16 03:52   9.5   9.5   9.5  92%  92%  92%  1013  1013  1013    0.0    0.0    1.4    5.0    E    -
2021/04/16 03:46   9.6   9.6   9.6  92%  92%  92%  1013  1013  1013    0.0    0.0    1.1    4.3  ESE    -
2021/04/16 03:41   9.6   9.6   9.6  91%  91%  91%  1013  1013  1013    0.0    0.0    1.4    4.7    E    -
2021/04/16 03:36   9.8   9.8   9.8  91%  91%  91%  1013  1013  1013    0.0    0.0    1.4    5.0  ENE    -
2021/04/16 03:31   9.8   9.8   9.8  91%  91%  91%  1013  1013  1013    0.0    0.0    1.1    5.4  ENE    -
2021/04/16 03:26   9.8   9.8   9.8  91%  91%  91%  1013  1013  1013    0.0    0.0    0.0    0.0    E    -
2021/04/16 03:21   9.9   9.9   9.9  91%  91%  91%  1013  1013  1013    0.0    0.0    1.1    4.3    E    -
2021/04/16 03:16   9.9   9.9   9.9  91%  91%  91%  1013  1013  1013    0.0    0.0    1.1    4.0  ENE    -
2021/04/16 03:11   9.9   9.9   9.9  91%  91%  91%  1013  1013  1013    0.0    0.0    1.8    5.8  ENE    -
2021/04/16 03:06   9.9   9.9   9.9  91%  91%  91%  1013  1013  1013    0.0    0.0    0.4    2.5   NE    -
2021/04/16 03:01   9.9   9.9   9.9  91%  91%  91%  1014  1014  1014    0.0    0.0    0.0    3.2    E    -
2021/04/16 02:56  10.0  10.0  10.0  91%  91%  91%  1014  1014  1014    0.0    0.0    1.4    5.0    E    -
2021/04/16 02:51  10.0  10.0  10.0  90%  90%  90%  1014  1014  1014    0.0    0.0    1.4    3.6  ENE    -
2021/04/16 02:46  10.0  10.0  10.0  90%  90%  90%  1014  1014  1014    0.0    0.0    3.6    5.8   NE    -
2021/04/16 02:41   9.9   9.9   9.9  90%  90%  90%  1014  1014  1014    0.0    0.0    0.0    4.3    E    -
2021/04/16 02:36   9.9   9.9   9.9  89%  89%  89%  1014  1014  1014    0.0    0.0    0.0    0.0    E    -
2021/04/16 02:31   9.9   9.9   9.9  89%  89%  89%  1014  1014  1014    0.0    0.0    0.0    0.0    E    -
2021/04/16 02:26  10.0  10.0  10.0  89%  89%  89%  1014  1014  1014    0.0    0.0    0.0    0.0    E    -
2021/04/16 02:21  10.1  10.1  10.1  89%  89%  89%  1014  1014  1014    0.0    0.0    0.0    0.0    E    -
2021/04/16 02:16  10.2  10.2  10.2  89%  89%  89%  1014  1014  1014    0.0    0.0    0.4    3.6    W    -
2021/04/16 02:11  10.3  10.3  10.3  89%  89%  89%  1014  1014  1014    0.0    0.0    1.1    3.2  ESE    -
2021/04/16 02:05  10.4  10.4  10.4  89%  89%  89%  1014  1014  1014    0.0    0.0    1.4    4.0    E    -
2021/04/16 02:00  10.5  10.5  10.5  89%  89%  89%  1014  1014  1014    0.0    0.0    1.1    4.0    E    -
2021/04/16 01:55  10.7  10.7  10.7  89%  89%  89%  1014  1014  1014    0.0    0.0    1.4    4.3  ENE    -
2021/04/16 01:50  10.7  10.7  10.7  88%  88%  88%  1014  1014  1014    0.0    0.0    2.5    4.3  ENE    -
2021/04/16 01:45  10.8  10.8  10.8  88%  88%  88%  1014  1014  1014    0.0    0.0    4.3    5.4  ENE    -
2021/04/16 01:40  10.9  10.9  10.9  88%  88%  88%  1014  1014  1014    0.0    0.0    4.7    6.5  ENE    -
2021/04/16 01:35  10.9  10.9  10.9  87%  87%  87%  1014  1014  1014    0.0    0.0    4.3    6.8  ENE    -
2021/04/16 01:30  11.0  11.0  11.0  87%  87%  87%  1014  1014  1014    0.0    0.0    4.0    6.5   NE    -
2021/04/16 01:25  11.0  11.0  11.0  87%  87%  87%  1014  1014  1014    0.0    0.0    4.0    5.8  NNE    -
2021/04/16 01:20  11.1  11.1  11.1  87%  87%  87%  1014  1014  1014    0.0    0.0    2.5    5.8   NE    -
2021/04/16 01:15  11.2  11.2  11.2  87%  87%  87%  1014  1014  1014    0.0    0.0    3.6    5.0    E    -
2021/04/16 01:10  11.2  11.2  11.2  86%  86%  86%  1014  1014  1014    0.0    0.0    3.6    5.0   NE    -
2021/04/16 01:05  11.3  11.3  11.3  86%  86%  86%  1014  1014  1014    0.0    0.0    3.6    5.8   NE    -